createdAt,value
2023-04-26T00:02:54.733Z,97786.19
2023-04-26T00:06:04.438Z,97789.78
2023-04-26T00:09:10.048Z,97786.09
2023-04-26T00:12:16.435Z,97793.41
2023-04-26T00:15:24.795Z,97800.09
2023-04-26T00:18:31.882Z,97789.66
2023-04-26T00:21:37.465Z,97796.88
2023-04-26T00:24:43.891Z,97795.91
2023-04-26T00:27:50.234Z,97802.44
2023-04-26T00:30:59.271Z,97807.53
2023-04-26T00:34:05.167Z,97805.50
2023-04-26T00:37:13.183Z,97805.19
2023-04-26T00:40:20.891Z,97794.44
2023-04-26T00:43:27.288Z,97799.34
2023-04-26T00:46:35.937Z,97801.94
2023-04-26T00:49:42.411Z,97799.66
2023-04-26T00:52:50.915Z,97806.25
2023-04-26T00:55:57.647Z,97811.09
2023-04-26T00:59:03.888Z,97815.53
2023-04-26T01:02:13.180Z,97823.53
2023-04-26T01:05:18.944Z,97816.00
2023-04-26T01:08:27.129Z,97817.66
2023-04-26T01:11:33.306Z,97810.31
2023-04-26T01:14:40.280Z,97808.69
2023-04-26T01:17:50.095Z,97815.22
2023-04-26T01:20:57.099Z,97816.19
2023-04-26T01:24:05.615Z,97821.13
2023-04-26T01:27:12.027Z,97819.19
2023-04-26T01:30:19.770Z,97827.06
2023-04-26T01:33:26.126Z,97839.31
2023-04-26T01:36:32.815Z,97834.31
2023-04-26T01:39:41.712Z,97839.88
2023-04-26T01:42:47.322Z,97838.09
2023-04-26T01:45:53.795Z,97845.13
2023-04-26T01:49:08.879Z,97843.47
2023-04-26T01:52:15.332Z,97853.78
2023-04-26T01:55:26.313Z,97850.50
2023-04-26T01:58:33.014Z,97843.63
2023-04-26T02:01:38.717Z,97854.56
2023-04-26T02:04:45.188Z,97856.88
2023-04-26T02:07:53.329Z,97843.81
2023-04-26T02:11:02.816Z,97857.53
2023-04-26T02:14:08.639Z,97859.31
2023-04-26T02:17:16.578Z,97857.84
2023-04-26T02:20:22.804Z,97854.06
2023-04-26T02:23:29.373Z,97856.69
2023-04-26T02:26:37.561Z,97857.53
2023-04-26T02:29:44.911Z,97855.06
2023-04-26T02:32:51.291Z,97853.59
2023-04-26T02:35:57.831Z,97855.22
2023-04-26T02:39:03.916Z,97854.91
2023-04-26T02:42:14.755Z,97852.47
2023-04-26T02:45:20.730Z,97860.09
2023-04-26T02:48:27.475Z,97858.97
2023-04-26T02:51:33.771Z,97865.97
2023-04-26T02:54:40.353Z,97870.38
2023-04-26T02:57:50.672Z,97860.88
2023-04-26T03:00:59.533Z,97865.75
2023-04-26T03:04:07.215Z,97866.00
2023-04-26T03:07:15.163Z,97865.78
2023-04-26T03:10:21.101Z,97879.50
2023-04-26T03:13:30.443Z,97875.25
2023-04-26T03:16:45.574Z,97875.63
2023-04-26T03:19:52.259Z,97879.69
2023-04-26T03:22:58.120Z,97885.91
2023-04-26T03:26:05.603Z,97898.75
2023-04-26T03:29:13.993Z,97892.38
2023-04-26T03:32:20.402Z,97897.75
2023-04-26T03:35:26.275Z,97899.03
2023-04-26T03:38:32.800Z,97902.94
2023-04-26T03:41:40.641Z,97899.63
2023-04-26T03:44:51.725Z,97912.81
2023-04-26T03:47:57.367Z,97916.03
2023-04-26T03:51:04.972Z,97915.84
2023-04-26T03:54:11.368Z,97911.88
2023-04-26T03:57:18.852Z,97922.78
2023-04-26T04:00:27.509Z,97922.44
2023-04-26T04:03:34.192Z,97917.84
2023-04-26T04:06:40.049Z,97930.34
2023-04-26T04:09:46.468Z,97933.25
2023-04-26T04:12:52.558Z,97925.75
2023-04-26T04:16:02.637Z,97939.59
2023-04-26T04:19:09.001Z,97937.50
2023-04-26T04:22:15.453Z,97948.13
2023-04-26T04:25:22.554Z,97951.44
2023-04-26T04:28:30.106Z,97948.69
2023-04-26T04:31:40.297Z,97950.31
2023-04-26T04:34:49.662Z,97952.69
2023-04-26T04:37:56.869Z,97957.75
2023-04-26T04:41:03.379Z,97964.47
2023-04-26T04:44:09.395Z,97958.72
2023-04-26T04:47:19.279Z,97957.97
2023-04-26T04:50:26.353Z,97964.53
2023-04-26T04:53:32.868Z,97955.91
2023-04-26T04:56:38.733Z,97960.44
2023-04-26T04:59:45.565Z,97967.13
2023-04-26T05:02:54.315Z,97955.63
2023-04-26T05:06:01.582Z,97966.13
2023-04-26T05:09:07.975Z,97965.94
2023-04-26T05:12:15.466Z,97968.66
2023-04-26T05:15:21.597Z,97974.47
2023-04-26T05:18:30.629Z,97978.22
2023-04-26T05:21:36.490Z,97980.47
2023-04-26T05:24:42.860Z,97981.75
2023-04-26T05:27:48.773Z,97993.66
2023-04-26T05:31:18.085Z,97986.34
2023-04-26T05:34:42.619Z,98002.88
2023-04-26T05:37:52.568Z,97995.88
2023-04-26T05:41:00.507Z,97996.78
2023-04-26T05:44:07.296Z,97990.47
2023-04-26T05:47:16.237Z,97996.16
2023-04-26T05:50:25.299Z,97993.38
2023-04-26T05:53:31.351Z,97996.00
2023-04-26T05:56:37.732Z,97999.03
2023-04-26T05:59:43.646Z,97992.59
2023-04-26T06:02:50.379Z,98013.38
2023-04-26T06:05:59.588Z,98004.34
2023-04-26T06:09:08.867Z,98004.06
2023-04-26T06:12:15.086Z,97990.91
2023-04-26T06:15:24.031Z,98012.19
2023-04-26T06:18:29.842Z,98007.97
2023-04-26T06:21:38.924Z,98020.53
2023-04-26T06:24:44.628Z,98008.31
2023-04-26T06:27:50.911Z,98014.88
2023-04-26T06:30:56.927Z,98022.09
2023-04-26T06:34:04.530Z,98018.53
2023-04-26T06:37:13.137Z,98017.38
2023-04-26T06:40:22.852Z,98020.41
2023-04-26T06:43:28.544Z,98018.19
2023-04-26T06:46:41.771Z,98015.00
2023-04-26T06:49:47.637Z,98014.53
2023-04-26T06:52:56.712Z,98011.59
2023-04-26T06:56:02.366Z,98009.44
2023-04-26T06:59:10.719Z,97985.78
2023-04-26T07:02:16.505Z,98003.59
2023-04-26T07:05:23.358Z,98011.38
2023-04-26T07:08:31.871Z,98009.06
2023-04-26T07:11:38.514Z,98022.28
2023-04-26T07:14:44.346Z,98031.59
2023-04-26T07:17:50.591Z,98021.53
2023-04-26T07:20:56.221Z,98012.50
2023-04-26T07:24:06.532Z,98020.28
2023-04-26T07:27:12.225Z,98030.47
2023-04-26T07:30:18.618Z,98027.19
2023-04-26T07:33:24.500Z,98033.69
2023-04-26T07:36:31.783Z,98042.25
2023-04-26T07:39:40.150Z,98043.63
2023-04-26T07:42:46.487Z,98035.00
2023-04-26T07:45:54.265Z,98037.50
2023-04-26T07:49:00.604Z,98036.56
2023-04-26T07:52:06.301Z,98022.19
2023-04-26T07:55:17.647Z,98038.34
2023-04-26T07:58:23.448Z,98044.22
2023-04-26T08:01:29.728Z,98039.16
2023-04-26T08:04:37.298Z,98052.94
2023-04-26T08:07:44.994Z,98045.25
2023-04-26T08:10:53.360Z,98053.16
2023-04-26T08:13:59.935Z,98059.13
2023-04-26T08:17:05.630Z,98049.44
2023-04-26T08:20:14.449Z,98039.47
2023-04-26T08:23:20.197Z,98043.34
2023-04-26T08:26:29.412Z,98040.31
2023-04-26T08:29:35.199Z,98042.06
2023-04-26T08:32:41.700Z,98049.56
2023-04-26T08:35:47.687Z,98041.53
2023-04-26T08:38:54.865Z,98052.72
2023-04-26T08:42:17.217Z,98030.66
2023-04-26T08:45:25.116Z,98040.25
2023-04-26T08:48:37.590Z,98020.63
2023-04-26T08:51:46.829Z,98044.84
2023-04-26T08:54:55.764Z,98064.97
2023-04-26T08:58:05.439Z,98059.19
2023-04-26T09:01:16.504Z,98046.19
2023-04-26T09:04:22.962Z,98061.78
2023-04-26T09:07:35.999Z,98059.25
2023-04-26T09:10:42.412Z,98063.47
2023-04-26T09:13:50.720Z,98064.59
2023-04-26T09:16:57.903Z,98082.22
2023-04-26T09:20:08.054Z,98065.91
2023-04-26T09:23:16.080Z,98059.28
2023-04-26T09:26:24.522Z,98051.59
2023-04-26T09:29:33.560Z,98051.00
2023-04-26T09:32:55.256Z,98061.56
2023-04-26T09:36:15.704Z,98054.50
2023-04-26T09:39:37.548Z,98052.50
2023-04-26T09:42:45.236Z,98055.72
2023-04-26T09:45:56.520Z,98054.13
2023-04-26T09:49:05.904Z,98062.47
2023-04-26T09:52:11.577Z,98057.63
2023-04-26T09:55:35.545Z,98055.53
2023-04-26T09:58:58.532Z,98065.97
2023-04-26T10:02:10.598Z,98056.75
2023-04-26T10:05:17.950Z,98058.56
2023-04-26T10:08:24.374Z,98068.31
2023-04-26T10:11:31.097Z,98063.44
2023-04-26T10:14:40.536Z,98049.78
2023-04-26T10:17:51.906Z,98049.94
2023-04-26T10:21:05.648Z,98055.03
2023-04-26T10:24:13.847Z,98062.47
2023-04-26T10:27:20.381Z,98064.84
2023-04-26T10:30:26.504Z,98062.97
2023-04-26T10:33:35.666Z,98064.50
2023-04-26T10:37:13.782Z,98054.50
2023-04-26T10:40:33.047Z,98052.88
2023-04-26T10:43:43.106Z,98058.63
2023-04-26T10:46:54.560Z,98045.78
2023-04-26T10:50:14.904Z,98046.22
2023-04-26T10:53:21.487Z,98034.28
2023-04-26T10:56:58.276Z,98031.38
2023-04-26T11:00:21.763Z,98037.03
2023-04-26T11:03:27.530Z,98029.06
2023-04-26T11:06:54.374Z,98043.13
2023-04-26T11:10:04.882Z,98035.91
2023-04-26T11:13:11.921Z,98034.38
2023-04-26T11:16:20.696Z,98045.59
2023-04-26T11:19:27.126Z,98044.91
2023-04-26T11:22:35.672Z,98058.00
2023-04-26T11:25:43.385Z,98052.84
2023-04-26T11:28:49.081Z,98052.00
2023-04-26T11:31:57.355Z,98044.66
2023-04-26T11:35:04.704Z,98053.97
2023-04-26T11:38:13.838Z,98052.13
2023-04-26T11:41:20.431Z,98054.53
2023-04-26T11:44:26.767Z,98027.97
2023-04-26T11:47:33.981Z,98034.31
2023-04-26T11:50:42.836Z,98036.66
2023-04-26T11:53:51.017Z,98045.34
2023-04-26T11:56:57.648Z,98039.34
2023-04-26T12:00:16.209Z,98052.09
2023-04-26T12:03:23.661Z,98049.22
2023-04-26T12:06:34.328Z,98047.19
2023-04-26T12:09:44.831Z,98044.44
2023-04-26T12:12:55.008Z,98037.06
2023-04-26T12:16:02.636Z,98055.81
2023-04-26T12:19:13.688Z,98045.50
2023-04-26T12:22:24.919Z,98041.81
2023-04-26T12:25:33.770Z,98064.59
2023-04-26T12:28:40.463Z,98061.38
2023-04-26T12:31:46.401Z,98047.94
2023-04-26T12:34:52.921Z,98050.44
2023-04-26T12:38:00.966Z,98072.88
2023-04-26T12:41:10.466Z,98075.34
2023-04-26T12:44:19.630Z,98087.88
2023-04-26T12:47:28.133Z,98092.28
2023-04-26T12:50:34.305Z,98094.44
2023-04-26T12:53:40.687Z,98094.31
2023-04-26T12:56:49.726Z,98091.06
2023-04-26T12:59:56.712Z,98105.38
2023-04-26T13:03:02.815Z,98097.63
2023-04-26T13:06:10.385Z,98092.13
2023-04-26T13:09:16.106Z,98085.94
2023-04-26T13:12:25.092Z,98081.50
2023-04-26T13:15:31.580Z,98073.47
2023-04-26T13:18:38.047Z,98069.63
2023-04-26T13:21:44.385Z,98068.19
2023-04-26T13:24:51.194Z,98071.16
2023-04-26T13:27:59.425Z,98082.22
2023-04-26T13:31:06.679Z,98084.66
2023-04-26T13:34:14.397Z,98116.03
2023-04-26T13:37:21.645Z,98124.41
2023-04-26T13:40:27.418Z,98111.16
2023-04-26T13:43:36.492Z,98115.94
2023-04-26T13:46:42.175Z,98115.69
2023-04-26T13:49:48.492Z,98111.44
2023-04-26T13:52:54.195Z,98101.47
2023-04-26T13:56:00.629Z,98116.84
2023-04-26T13:59:11.760Z,98114.31
2023-04-26T14:02:18.244Z,98118.22
2023-04-26T14:05:24.146Z,98105.31
2023-04-26T14:08:30.619Z,98114.88
2023-04-26T14:11:36.347Z,98111.88
2023-04-26T14:14:48.074Z,98113.63
2023-04-26T14:17:53.710Z,98117.38
2023-04-26T14:21:00.289Z,98119.84
2023-04-26T14:24:06.753Z,98115.47
2023-04-26T14:27:13.411Z,98099.84
2023-04-26T14:30:24.828Z,98104.97
2023-04-26T14:33:31.758Z,98106.03
2023-04-26T14:36:37.822Z,98103.47
2023-04-26T14:39:44.281Z,98108.91
2023-04-26T14:42:50.002Z,98112.19
2023-04-26T14:45:59.141Z,98123.16
2023-04-26T14:49:04.980Z,98136.09
2023-04-26T14:52:11.568Z,98135.03
2023-04-26T14:55:22.650Z,98142.44
2023-04-26T14:58:29.460Z,98139.13
2023-04-26T15:01:41.806Z,98144.44
2023-04-26T15:04:48.526Z,98138.34
2023-04-26T15:07:54.770Z,98139.75
2023-04-26T15:11:01.174Z,98150.28
2023-04-26T15:14:06.840Z,98142.97
2023-04-26T15:17:15.714Z,98135.03
2023-04-26T15:20:22.112Z,98146.63
2023-04-26T15:23:29.081Z,98150.06
2023-04-26T15:26:37.089Z,98147.44
2023-04-26T15:29:43.491Z,98153.97
2023-04-26T15:32:53.543Z,98153.34
2023-04-26T15:36:02.797Z,98146.63
2023-04-26T15:39:08.700Z,98150.94
2023-04-26T15:42:19.371Z,98146.59
2023-04-26T15:45:25.016Z,98146.81
2023-04-26T15:48:35.850Z,98144.34
2023-04-26T15:51:43.942Z,98148.25
2023-04-26T15:54:50.357Z,98146.25
2023-04-26T15:57:57.860Z,98148.69
2023-04-26T16:01:04.751Z,98148.88
2023-04-26T16:04:13.212Z,98143.81
2023-04-26T16:07:21.419Z,98143.22
2023-04-26T16:10:27.032Z,98135.84
2023-04-26T16:13:34.459Z,98161.09
2023-04-26T16:16:43.376Z,98159.66
2023-04-26T16:19:52.573Z,98163.28
2023-04-26T16:22:58.379Z,98162.31
2023-04-26T16:26:05.264Z,98155.28
2023-04-26T16:29:11.309Z,98167.69
2023-04-26T16:32:17.866Z,98163.09
2023-04-26T16:35:26.960Z,98166.94
2023-04-26T16:38:33.346Z,98178.25
2023-04-26T16:41:39.063Z,98180.56
2023-04-26T16:44:45.557Z,98186.22
2023-04-26T16:47:51.515Z,98198.47
2023-04-26T16:51:06.355Z,98209.13
2023-04-26T16:54:13.220Z,98221.84
2023-04-26T16:57:19.640Z,98225.94
2023-04-26T17:00:25.791Z,98225.94
2023-04-26T17:03:32.274Z,98232.09
2023-04-26T17:06:40.759Z,98233.56
2023-04-26T17:09:47.309Z,98231.72
2023-04-26T17:12:53.046Z,98225.56
2023-04-26T17:15:59.963Z,98229.16
2023-04-26T17:19:37.229Z,98238.31
2023-04-26T17:22:59.435Z,98238.84
2023-04-26T17:26:05.336Z,98237.59
2023-04-26T17:29:11.675Z,98240.13
2023-04-26T17:32:17.403Z,98242.94
2023-04-26T17:35:23.845Z,98241.22
2023-04-26T17:38:32.156Z,98244.59
2023-04-26T17:41:38.596Z,98244.06
2023-04-26T17:44:47.543Z,98241.63
2023-04-26T17:47:53.985Z,98252.94
2023-04-26T17:51:00.166Z,98252.69
2023-04-26T17:54:09.452Z,98255.00
2023-04-26T17:57:18.028Z,98258.41
2023-04-26T18:00:24.981Z,98265.28
2023-04-26T18:03:31.528Z,98268.03
2023-04-26T18:06:40.129Z,98257.44
2023-04-26T18:09:48.577Z,98262.06
2023-04-26T18:12:55.000Z,98265.22
2023-04-26T18:16:03.799Z,98276.59
2023-04-26T18:19:10.786Z,98276.56
2023-04-26T18:22:16.459Z,98290.97
2023-04-26T18:25:25.634Z,98287.56
2023-04-26T18:28:33.576Z,98285.44
2023-04-26T18:31:43.328Z,98295.13
2023-04-26T18:34:49.137Z,98298.75
2023-04-26T18:37:55.789Z,98312.25
2023-04-26T18:41:06.574Z,98305.34
2023-04-26T18:44:13.486Z,98309.13
2023-04-26T18:47:19.245Z,98308.50
2023-04-26T18:50:26.217Z,98315.72
2023-04-26T18:53:31.938Z,98317.50
2023-04-26T18:56:41.640Z,98317.34
2023-04-26T18:59:47.367Z,98321.25
2023-04-26T19:02:55.095Z,98326.34
2023-04-26T19:06:01.015Z,98325.03
2023-04-26T19:09:11.520Z,98325.03
2023-04-26T19:12:23.105Z,98326.34
2023-04-26T19:15:29.756Z,98334.66
2023-04-26T19:18:39.338Z,98335.50
2023-04-26T19:21:47.822Z,98334.38
2023-04-26T19:24:54.110Z,98333.72
2023-04-26T19:28:03.563Z,98333.06
2023-04-26T19:31:09.311Z,98342.72
2023-04-26T19:34:16.229Z,98342.69
2023-04-26T19:37:22.163Z,98335.78
2023-04-26T19:40:28.653Z,98349.72
2023-04-26T19:43:36.959Z,98347.78
2023-04-26T19:46:43.538Z,98337.13
2023-04-26T19:49:49.865Z,98346.81
2023-04-26T19:52:56.316Z,98334.88
2023-04-26T19:56:02.097Z,98341.91
2023-04-26T19:59:11.117Z,98340.56
2023-04-26T20:02:17.066Z,98350.09
2023-04-26T20:05:23.473Z,98349.94
2023-04-26T20:08:30.982Z,98352.56
2023-04-26T20:11:37.914Z,98352.03
2023-04-26T20:14:47.363Z,98353.50
2023-04-26T20:17:53.730Z,98354.47
2023-04-26T20:20:59.404Z,98361.69
2023-04-26T20:24:05.878Z,98352.97
2023-04-26T20:27:11.760Z,98357.91
2023-04-26T20:30:20.800Z,98350.50
2023-04-26T20:33:26.635Z,98351.50
2023-04-26T20:36:33.756Z,98356.75
2023-04-26T20:39:39.619Z,98361.50
2023-04-26T20:42:46.506Z,98365.31
2023-04-26T20:45:54.834Z,98358.44
2023-04-26T20:49:01.415Z,98363.84
2023-04-26T20:52:10.442Z,98357.66
2023-04-26T20:55:17.138Z,98359.44
2023-04-26T20:58:23.107Z,98371.22
2023-04-26T21:01:33.971Z,98361.06
2023-04-26T21:04:42.075Z,98368.06
2023-04-26T21:07:50.044Z,98370.88
2023-04-26T21:10:55.778Z,98372.34
2023-04-26T21:14:02.306Z,98371.53
2023-04-26T21:17:10.810Z,98381.50
2023-04-26T21:20:18.033Z,98381.97
2023-04-26T21:23:23.868Z,98377.84
2023-04-26T21:26:30.219Z,98381.91
2023-04-26T21:29:35.948Z,98382.41
2023-04-26T21:32:45.038Z,98386.13
2023-04-26T21:35:50.648Z,98397.22
2023-04-26T21:38:57.128Z,98397.50
2023-04-26T21:42:03.982Z,98396.19
2023-04-26T21:45:12.647Z,98399.75
2023-04-26T21:48:20.962Z,98392.94
2023-04-26T21:51:27.937Z,98391.22
2023-04-26T21:54:33.719Z,98399.44
2023-04-26T21:57:40.193Z,98414.53
2023-04-26T22:00:46.036Z,98411.66
2023-04-26T22:03:55.177Z,98416.16
2023-04-26T22:07:01.184Z,98426.00
2023-04-26T22:10:09.299Z,98423.00
2023-04-26T22:13:15.258Z,98423.53
2023-04-26T22:16:22.254Z,98429.50
2023-04-26T22:19:30.987Z,98427.88
2023-04-26T22:22:37.643Z,98431.38
2023-04-26T22:25:43.657Z,98439.66
2023-04-26T22:28:50.376Z,98439.44
2023-04-26T22:31:56.416Z,98442.06
2023-04-26T22:35:05.791Z,98442.72
2023-04-26T22:38:12.071Z,98446.81
2023-04-26T22:41:18.730Z,98446.38
2023-04-26T22:44:24.741Z,98437.41
2023-04-26T22:47:31.442Z,98437.94
2023-04-26T22:50:39.961Z,98432.13
2023-04-26T22:53:46.739Z,98441.53
2023-04-26T22:56:52.835Z,98445.31
2023-04-26T22:59:59.515Z,98445.25
2023-04-26T23:03:05.694Z,98452.66
2023-04-26T23:06:15.169Z,98445.56
2023-04-26T23:09:21.124Z,98451.00
2023-04-26T23:12:27.911Z,98452.63
2023-04-26T23:15:34.403Z,98447.69
2023-04-26T23:18:42.226Z,98446.28
2023-04-26T23:21:50.856Z,98451.19
2023-04-26T23:24:57.589Z,98446.47
2023-04-26T23:28:03.624Z,98452.09
2023-04-26T23:31:10.343Z,98456.34
2023-04-26T23:34:16.388Z,98457.53
2023-04-26T23:37:25.684Z,98455.44
2023-04-26T23:40:31.729Z,98440.69
2023-04-26T23:43:38.397Z,98455.38
2023-04-26T23:46:44.426Z,98465.53
2023-04-26T23:49:51.090Z,98460.00
2023-04-26T23:52:59.856Z,98464.25
2023-04-26T23:56:06.988Z,98459.16
2023-04-26T23:59:13.111Z,98453.09
